createdAt,value
2022-08-02T00:02:51.993Z,4.37
2022-08-02T00:06:53.022Z,5.70
2022-08-02T00:10:54.468Z,4.57
2022-08-02T00:14:55.761Z,5.00
2022-08-02T00:18:56.979Z,4.57
2022-08-02T00:22:58.503Z,4.50
2022-08-02T00:26:59.737Z,5.60
2022-08-02T00:31:00.977Z,4.67
2022-08-02T00:35:04.125Z,3.93
2022-08-02T00:39:05.386Z,5.30
2022-08-02T00:43:10.234Z,4.40
2022-08-02T00:47:11.331Z,4.70
2022-08-02T00:51:15.584Z,4.60
2022-08-02T00:55:16.937Z,4.50
2022-08-02T00:59:19.692Z,4.60
2022-08-02T01:03:20.686Z,4.47
2022-08-02T01:07:21.902Z,5.03
2022-08-02T01:11:29.969Z,4.43
2022-08-02T01:15:36.253Z,4.70
2022-08-02T01:20:04.219Z,4.50
2022-08-02T01:24:17.615Z,4.50
2022-08-02T01:28:28.272Z,4.87
2022-08-02T01:32:33.226Z,4.47
2022-08-02T01:36:38.019Z,5.30
2022-08-02T01:40:42.736Z,4.97
2022-08-02T01:44:45.970Z,5.30
2022-08-02T01:48:48.763Z,5.00
2022-08-02T01:52:53.550Z,6.27
2022-08-02T01:56:56.497Z,6.30
2022-08-02T02:00:59.425Z,6.20
2022-08-02T02:05:02.742Z,6.13
2022-08-02T02:09:05.088Z,6.47
2022-08-02T02:13:14.313Z,6.47
2022-08-02T02:17:53.224Z,6.90
2022-08-02T02:21:23.219Z,7.60
2022-08-02T02:25:32.937Z,7.83
2022-08-02T02:29:30.017Z,7.70
2022-08-02T02:33:34.782Z,7.20
2022-08-02T02:37:37.757Z,8.20
2022-08-02T02:41:40.167Z,6.63
2022-08-02T02:45:42.869Z,6.50
2022-08-02T02:49:47.892Z,6.37
2022-08-02T02:54:30.976Z,6.67
2022-08-02T02:57:54.706Z,6.43
2022-08-02T03:01:58.078Z,6.67
2022-08-02T03:05:59.193Z,6.33
2022-08-02T03:10:00.992Z,5.87
2022-08-02T03:14:04.737Z,6.97
2022-08-02T03:18:07.819Z,6.43
2022-08-02T03:22:09.193Z,5.93
2022-08-02T03:26:10.564Z,6.50
2022-08-02T03:30:12.785Z,7.37
2022-08-02T03:34:14.195Z,7.93
2022-08-02T03:38:17.906Z,7.07
2022-08-02T03:42:20.755Z,7.27
2022-08-02T03:46:24.431Z,6.90
2022-08-02T03:50:26.483Z,8.63
2022-08-02T03:54:34.516Z,8.70
2022-08-02T03:58:30.880Z,6.77
2022-08-02T04:02:31.801Z,7.93
2022-08-02T04:06:33.014Z,8.37
2022-08-02T04:10:54.012Z,7.77
2022-08-02T04:14:55.936Z,7.67
2022-08-02T04:19:01.131Z,8.30
2022-08-02T04:23:05.865Z,8.73
2022-08-02T04:27:49.263Z,9.30
2022-08-02T04:31:13.148Z,8.80
2022-08-02T04:35:19.573Z,8.87
2022-08-02T04:39:18.674Z,9.90
2022-08-02T04:43:20.310Z,10.70
2022-08-02T04:47:34.702Z,10.20
2022-08-02T04:51:38.430Z,11.03
2022-08-02T04:55:30.444Z,8.70
2022-08-02T04:59:31.459Z,8.73
2022-08-02T05:03:32.365Z,7.93
2022-08-02T05:07:36.887Z,7.67
2022-08-02T05:11:37.374Z,7.50
2022-08-02T05:15:38.579Z,6.97
2022-08-02T05:19:39.591Z,6.83
2022-08-02T05:23:42.686Z,7.30
2022-08-02T05:27:43.695Z,6.80
2022-08-02T05:31:45.318Z,6.30
2022-08-02T05:35:46.455Z,5.90
2022-08-02T05:39:55.370Z,6.40
2022-08-02T05:43:51.202Z,6.00
2022-08-02T05:47:52.519Z,6.20
2022-08-02T05:52:06.759Z,5.10
2022-08-02T05:56:20.419Z,5.13
2022-08-02T06:00:23.699Z,4.77
2022-08-02T06:04:27.824Z,5.53
2022-08-02T06:08:44.548Z,4.20
2022-08-02T06:12:53.081Z,3.63
2022-08-02T06:16:55.471Z,4.43
2022-08-02T06:22:30.554Z,3.20
2022-08-02T06:25:06.415Z,3.57
2022-08-02T06:29:07.976Z,3.80
2022-08-02T06:33:10.386Z,5.07
2022-08-02T06:37:22.437Z,3.90
2022-08-02T06:41:25.257Z,3.37
2022-08-02T06:45:28.987Z,3.70
2022-08-02T06:49:52.406Z,4.00
2022-08-02T06:53:33.089Z,3.60
2022-08-02T06:57:34.567Z,3.57
2022-08-02T07:01:39.065Z,3.00
2022-08-02T07:05:39.801Z,3.00
2022-08-02T07:09:57.016Z,2.70
2022-08-02T07:13:43.805Z,2.77
2022-08-02T07:17:44.989Z,3.07
2022-08-02T07:21:57.022Z,2.20
2022-08-02T07:26:02.746Z,2.17
2022-08-02T07:29:52.320Z,3.03
2022-08-02T07:33:53.440Z,2.57
2022-08-02T07:38:02.059Z,2.77
2022-08-02T07:41:57.993Z,2.50
2022-08-02T07:46:01.067Z,2.33
2022-08-02T07:50:02.903Z,2.20
2022-08-02T07:54:04.901Z,2.23
2022-08-02T07:58:06.835Z,1.70
2022-08-02T08:02:10.285Z,1.83
2022-08-02T08:06:11.512Z,1.83
2022-08-02T08:10:12.661Z,1.80
2022-08-02T08:14:16.851Z,2.00
2022-08-02T08:18:17.824Z,1.30
2022-08-02T08:22:20.152Z,1.77
2022-08-02T08:26:21.612Z,1.53
2022-08-02T08:30:22.585Z,1.80
2022-08-02T08:34:24.354Z,1.63
2022-08-02T08:38:25.594Z,1.87
2022-08-02T08:42:30.743Z,1.63
2022-08-02T08:46:34.808Z,2.13
2022-08-02T08:50:42.298Z,2.17
2022-08-02T08:54:44.189Z,2.00
2022-08-02T08:58:47.406Z,2.00
2022-08-02T09:02:49.159Z,2.00
2022-08-02T09:06:50.618Z,1.90
2022-08-02T09:10:52.419Z,2.00
2022-08-02T09:14:53.892Z,1.80
2022-08-02T09:18:56.860Z,2.30
2022-08-02T09:23:11.798Z,2.37
2022-08-02T09:27:18.572Z,1.67
2022-08-02T09:31:22.423Z,2.80
2022-08-02T09:36:05.142Z,1.80
2022-08-02T09:39:47.708Z,1.73
2022-08-02T09:43:52.406Z,2.00
2022-08-02T09:47:53.218Z,1.73
2022-08-02T09:51:56.348Z,2.40
2022-08-02T09:55:57.483Z,2.10
2022-08-02T09:59:59.290Z,2.00
2022-08-02T10:04:03.295Z,3.33
2022-08-02T10:08:05.805Z,3.00
2022-08-02T10:12:07.470Z,2.00
2022-08-02T10:16:09.513Z,2.50
2022-08-02T10:20:11.226Z,2.67
2022-08-02T10:24:15.457Z,2.30
2022-08-02T10:28:19.272Z,1.77
2022-08-02T10:32:30.114Z,2.30
2022-08-02T10:36:34.726Z,2.20
2022-08-02T10:40:53.300Z,1.93
2022-08-02T10:45:12.014Z,2.20
2022-08-02T10:49:38.570Z,1.70
2022-08-02T10:53:21.739Z,2.13
2022-08-02T10:57:26.373Z,2.07
2022-08-02T11:01:38.832Z,1.93
2022-08-02T11:05:43.342Z,1.90
2022-08-02T11:09:46.335Z,2.07
2022-08-02T11:14:08.389Z,1.90
2022-08-02T11:18:09.587Z,1.90
2022-08-02T11:22:14.312Z,1.80
2022-08-02T11:26:32.336Z,1.87
2022-08-02T11:30:34.039Z,1.83
2022-08-02T11:34:36.898Z,1.50
2022-08-02T11:38:38.093Z,1.73
2022-08-02T11:42:43.727Z,1.67
2022-08-02T11:46:47.170Z,1.60
2022-08-02T11:50:50.255Z,1.80
2022-08-02T11:54:51.624Z,2.10
2022-08-02T11:59:05.219Z,1.53
2022-08-02T12:03:07.146Z,1.60
2022-08-02T12:07:09.428Z,1.77
2022-08-02T12:11:10.890Z,2.30
2022-08-02T12:15:12.012Z,1.50
2022-08-02T12:19:19.724Z,1.23
2022-08-02T12:23:21.212Z,1.67
2022-08-02T12:27:31.282Z,1.63
2022-08-02T12:31:57.692Z,2.37
2022-08-02T12:35:48.780Z,1.40
2022-08-02T12:39:50.775Z,1.37
2022-08-02T12:43:53.119Z,1.52
2022-08-02T12:47:56.486Z,1.40
2022-08-02T12:52:03.398Z,1.40
2022-08-02T12:56:03.747Z,1.33
2022-08-02T13:00:06.087Z,1.98
2022-08-02T13:04:13.526Z,1.82
2022-08-02T13:08:10.786Z,1.70
2022-08-02T13:12:12.611Z,1.70
2022-08-02T13:16:14.553Z,1.80
2022-08-02T13:20:15.781Z,1.70
2022-08-02T13:24:38.472Z,1.67
2022-08-02T13:28:22.098Z,1.80
2022-08-02T13:32:24.665Z,1.62
2022-08-02T13:36:25.621Z,1.80
2022-08-02T13:40:35.259Z,2.67
2022-08-02T13:44:30.034Z,1.70
2022-08-02T13:48:32.177Z,1.80
2022-08-02T13:52:33.732Z,1.70
2022-08-02T13:56:36.465Z,2.27
2022-08-02T14:00:37.511Z,2.00
2022-08-02T14:04:38.582Z,1.60
2022-08-02T14:08:40.257Z,1.98
2022-08-02T14:12:43.322Z,1.80
2022-08-02T14:16:45.377Z,1.87
2022-08-02T14:20:47.081Z,2.12
2022-08-02T14:24:48.700Z,2.00
2022-08-02T14:28:50.370Z,1.73
2022-08-02T14:32:52.427Z,1.70
2022-08-02T14:36:55.005Z,1.60
2022-08-02T14:40:56.573Z,2.00
2022-08-02T14:44:57.803Z,1.77
2022-08-02T14:49:00.887Z,1.80
2022-08-02T14:53:02.096Z,1.63
2022-08-02T14:57:03.720Z,1.53
2022-08-02T15:01:05.225Z,1.77
2022-08-02T15:05:06.961Z,1.77
2022-08-02T15:09:08.159Z,1.60
2022-08-02T15:13:09.437Z,1.93
2022-08-02T15:17:10.924Z,1.60
2022-08-02T15:21:40.619Z,2.00
2022-08-02T15:25:16.310Z,1.77
2022-08-02T15:29:18.468Z,2.00
2022-08-02T15:33:19.652Z,1.90
2022-08-02T15:37:20.851Z,2.30
2022-08-02T15:41:23.225Z,1.40
2022-08-02T15:45:26.999Z,2.00
2022-08-02T15:49:28.139Z,1.77
2022-08-02T15:53:29.332Z,1.70
2022-08-02T15:57:30.453Z,1.43
2022-08-02T16:01:35.243Z,1.50
2022-08-02T16:05:34.503Z,1.43
2022-08-02T16:09:35.885Z,1.53
2022-08-02T16:13:55.031Z,2.23
2022-08-02T16:17:56.189Z,2.00
2022-08-02T16:21:57.316Z,1.67
2022-08-02T16:25:58.535Z,2.43
2022-08-02T16:29:59.586Z,2.30
2022-08-02T16:34:00.600Z,2.57
2022-08-02T16:38:01.855Z,2.03
2022-08-02T16:42:02.928Z,2.40
2022-08-02T16:46:04.274Z,2.13
2022-08-02T16:50:10.796Z,15.53
2022-08-02T16:54:11.177Z,7.17
2022-08-02T16:58:12.197Z,2.40
2022-08-02T17:02:18.152Z,6.93
2022-08-02T17:06:17.943Z,2.50
2022-08-02T17:10:19.804Z,2.17
2022-08-02T17:14:20.990Z,2.37
2022-08-02T17:18:26.342Z,2.30
2022-08-02T17:22:27.389Z,2.20
2022-08-02T17:26:28.627Z,2.30
2022-08-02T17:30:33.801Z,2.20
2022-08-02T17:34:36.176Z,2.30
2022-08-02T17:38:50.209Z,2.20
2022-08-02T17:42:41.574Z,2.47
2022-08-02T17:46:43.394Z,2.10
2022-08-02T17:50:49.041Z,2.37
2022-08-02T17:54:50.667Z,2.10
2022-08-02T17:58:54.035Z,2.33
2022-08-02T18:02:55.872Z,2.90
2022-08-02T18:06:59.715Z,2.90
2022-08-02T18:11:02.992Z,2.53
2022-08-02T18:15:06.857Z,2.23
2022-08-02T18:19:16.549Z,4.33
2022-08-02T18:23:13.489Z,3.07
2022-08-02T18:27:14.998Z,3.87
2022-08-02T18:31:22.970Z,4.40
2022-08-02T18:35:21.152Z,4.97
2022-08-02T18:39:22.418Z,3.73
2022-08-02T18:43:25.526Z,3.60
2022-08-02T18:47:27.943Z,3.53
2022-08-02T18:51:36.475Z,3.50
2022-08-02T18:55:59.445Z,3.73
2022-08-02T18:59:37.665Z,4.57
2022-08-02T19:03:38.766Z,4.00
2022-08-02T19:07:51.078Z,3.50
2022-08-02T19:11:47.386Z,3.63
2022-08-02T19:15:46.634Z,2.97
2022-08-02T19:19:51.236Z,3.40
2022-08-02T19:23:54.509Z,3.60
2022-08-02T19:27:55.780Z,3.13
2022-08-02T19:32:00.011Z,3.92
2022-08-02T19:36:02.084Z,3.20
2022-08-02T19:40:04.450Z,3.07
2022-08-02T19:44:24.370Z,3.70
2022-08-02T19:48:12.275Z,3.97
2022-08-02T19:52:20.617Z,3.53
2022-08-02T19:56:21.238Z,3.40
2022-08-02T20:00:22.550Z,3.40
2022-08-02T20:04:25.340Z,3.30
2022-08-02T20:08:31.610Z,3.47
2022-08-02T20:12:37.109Z,3.17
2022-08-02T20:16:34.698Z,3.87
2022-08-02T20:20:37.760Z,3.87
2022-08-02T20:24:39.650Z,3.67
2022-08-02T20:28:40.771Z,4.07
2022-08-02T20:32:42.009Z,5.77
2022-08-02T20:36:44.924Z,4.97
2022-08-02T20:40:47.816Z,5.00
2022-08-02T20:44:51.945Z,5.40
2022-08-02T20:48:57.472Z,5.50
2022-08-02T20:52:57.480Z,4.80
2022-08-02T20:56:59.194Z,3.87
2022-08-02T21:01:00.603Z,4.17
2022-08-02T21:05:07.698Z,4.20
2022-08-02T21:09:05.747Z,4.03
2022-08-02T21:17:18.232Z,5.00
2022-08-02T21:21:17.810Z,4.07
2022-08-02T21:25:21.038Z,3.83
2022-08-02T21:29:23.931Z,4.23
2022-08-02T21:33:25.077Z,4.70
2022-08-02T21:37:33.140Z,4.80
2022-08-02T21:41:39.707Z,4.73
2022-08-02T21:45:32.355Z,4.20
2022-08-02T21:50:08.599Z,4.13
2022-08-02T21:53:42.112Z,4.73
2022-08-02T21:57:40.550Z,4.93
2022-08-02T22:01:52.419Z,5.07
2022-08-02T22:05:47.319Z,4.97
2022-08-02T22:09:48.586Z,5.50
2022-08-02T22:13:50.305Z,5.50
2022-08-02T22:17:59.857Z,5.57
2022-08-02T22:21:55.773Z,5.30
2022-08-02T22:25:56.996Z,5.23
2022-08-02T22:29:58.194Z,4.83
2022-08-02T22:34:05.181Z,5.43
2022-08-02T22:38:15.360Z,7.13
2022-08-02T22:42:10.900Z,7.70
2022-08-02T22:46:15.500Z,5.60
2022-08-02T22:50:16.925Z,5.73
2022-08-02T22:54:18.475Z,4.87
2022-08-02T22:58:19.658Z,5.30
2022-08-02T23:02:22.644Z,5.17
2022-08-02T23:06:25.504Z,5.27
2022-08-02T23:10:26.508Z,4.87
2022-08-02T23:14:27.527Z,5.73
2022-08-02T23:18:46.854Z,5.67
2022-08-02T23:22:48.026Z,5.60
2022-08-02T23:26:49.161Z,4.97
2022-08-02T23:30:50.115Z,4.40
2022-08-02T23:34:51.341Z,6.17
2022-08-02T23:38:52.348Z,4.97
2022-08-02T23:42:53.365Z,5.90
2022-08-02T23:46:55.494Z,5.43
2022-08-02T23:50:56.561Z,4.80
2022-08-02T23:54:57.813Z,5.60
2022-08-02T23:58:58.792Z,4.43
